Time;durP1;ratioP1;P1;durP2;ratioP2;P2;SDS_P1;SDS_P2;PMS_P1;PMS_P2;Temp;Humidity;BMP_temperature;BMP_pressure;BME280_temperature;BME280_humidity;BME280_pressure;Samples;Min_cycle;Max_cycle;Signal;HPM_P1;HPM_P2
2021/03/16 00:01:39;;;;;;;1.60;1.40;;;5.40;98.20;;;;;;5008537;28;20479;-76
2021/03/16 00:04:05;;;;;;;1.60;1.40;;;5.40;98.20;;;;;;5019394;28;20490;-76
2021/03/16 00:06:32;;;;;;;1.60;1.23;;;5.50;98.20;;;;;;5001825;28;20488;-76
2021/03/16 00:08:59;;;;;;;1.60;1.30;;;5.50;98.20;;;;;;5013901;28;20873;-76
2021/03/16 00:11:25;;;;;;;1.60;1.50;;;5.50;98.20;;;;;;5013557;28;20593;-76
2021/03/16 00:13:52;;;;;;;1.60;1.40;;;5.50;98.20;;;;;;5015196;28;20521;-76
2021/03/16 00:16:19;;;;;;;1.60;1.50;;;5.60;98.20;;;;;;5013265;28;21019;-75
2021/03/16 00:18:46;;;;;;;1.60;1.30;;;5.60;98.20;;;;;;5017991;28;20460;-76
2021/03/16 00:21:12;;;;;;;1.60;1.37;;;5.60;98.20;;;;;;5010815;28;20559;-73
2021/03/16 00:23:38;;;;;;;1.60;1.30;;;5.60;98.20;;;;;;5016943;28;20484;-75
2021/03/16 00:26:05;;;;;;;1.60;1.30;;;5.60;98.20;;;;;;5008059;28;20481;-77
2021/03/16 00:28:31;;;;;;;1.60;1.30;;;5.60;98.20;;;;;;5029854;28;20463;-77
2021/03/16 00:30:58;;;;;;;1.60;1.30;;;5.60;98.20;;;;;;5016568;28;20469;-77
2021/03/16 00:33:24;;;;;;;1.60;1.30;;;5.70;98.20;;;;;;5034239;28;20483;-78
2021/03/16 00:35:50;;;;;;;1.60;1.40;;;5.70;98.20;;;;;;5013263;28;20589;-75
2021/03/16 00:38:17;;;;;;;1.60;1.30;;;5.70;98.20;;;;;;5025137;28;20475;-77
2021/03/16 00:40:43;;;;;;;1.70;1.60;;;5.70;98.20;;;;;;5014894;28;20962;-77
2021/03/16 00:43:10;;;;;;;1.60;1.37;;;5.70;98.20;;;;;;4999901;28;20510;-77
2021/03/16 00:45:36;;;;;;;1.60;1.27;;;5.70;98.20;;;;;;5023612;28;20557;-77
2021/03/16 00:48:03;;;;;;;1.60;1.30;;;5.70;98.20;;;;;;5005073;28;20479;-77
2021/03/16 00:50:29;;;;;;;1.60;1.30;;;5.70;98.20;;;;;;5017888;28;20463;-76
2021/03/16 00:52:56;;;;;;;1.60;1.30;;;5.70;98.20;;;;;;5013950;28;21064;-75
2021/03/16 00:55:22;;;;;;;1.53;1.30;;;5.70;98.20;;;;;;5018986;28;20986;-76
2021/03/16 00:57:48;;;;;;;1.60;1.40;;;5.70;98.20;;;;;;5015361;28;20510;-77
2021/03/16 01:00:17;;;;;;;1.60;1.30;;;5.70;98.20;;;;;;5024197;28;20478;-78
2021/03/16 01:02:43;;;;;;;1.60;1.30;;;5.70;98.20;;;;;;5016514;28;20491;-76
2021/03/16 01:05:11;;;;;;;1.60;1.30;;;5.70;98.20;;;;;;5012727;28;20487;-77
2021/03/16 01:07:37;;;;;;;1.53;1.27;;;5.70;98.20;;;;;;5012430;28;20475;-77
2021/03/16 01:10:09;;;;;;;1.60;1.30;;;5.70;98.20;;;;;;5022973;28;20479;-77
2021/03/16 01:12:35;;;;;;;1.60;1.33;;;5.80;98.20;;;;;;5009063;28;20491;-77
2021/03/16 01:15:01;;;;;;;1.60;1.40;;;5.80;98.20;;;;;;5018853;28;20964;-77
2021/03/16 01:17:28;;;;;;;1.60;1.30;;;5.80;98.20;;;;;;5012627;28;20487;-76
2021/03/16 01:19:55;;;;;;;1.60;1.20;;;5.80;98.20;;;;;;5018733;28;20467;-77
2021/03/16 01:22:22;;;;;;;1.60;1.30;;;5.80;98.20;;;;;;5014050;28;20502;-76
2021/03/16 01:24:48;;;;;;;1.60;1.30;;;5.80;98.20;;;;;;5024761;28;20503;-76
2021/03/16 01:27:14;;;;;;;1.60;1.40;;;5.80;98.20;;;;;;5008260;28;20534;-77
2021/03/16 01:29:40;;;;;;;1.60;1.30;;;5.80;98.20;;;;;;5017146;28;20474;-74
2021/03/16 01:32:08;;;;;;;1.60;1.30;;;5.80;98.20;;;;;;5016515;28;20980;-75
2021/03/16 01:34:35;;;;;;;1.60;1.30;;;5.80;98.20;;;;;;5024727;28;20894;-76
2021/03/16 01:37:01;;;;;;;1.60;1.30;;;5.80;98.20;;;;;;5014815;28;20560;-76
2021/03/16 01:39:28;;;;;;;1.60;1.30;;;5.80;98.20;;;;;;5018929;28;20456;-75
2021/03/16 01:41:54;;;;;;;1.60;1.40;;;5.80;98.20;;;;;;5009809;28;20639;-78
2021/03/16 01:44:20;;;;;;;1.60;1.40;;;5.80;98.20;;;;;;5014150;28;20487;-77
2021/03/16 01:46:46;;;;;;;1.60;1.37;;;5.80;98.20;;;;;;5008026;28;20475;-77
2021/03/16 01:49:13;;;;;;;1.60;1.47;;;5.80;98.20;;;;;;5028056;28;20656;-77
2021/03/16 01:51:40;;;;;;;1.50;1.30;;;5.80;98.20;;;;;;5012034;28;20503;-76
2021/03/16 01:54:07;;;;;;;1.60;1.30;;;5.80;98.20;;;;;;5019564;28;20487;-77
2021/03/16 01:56:37;;;;;;;1.60;1.37;;;5.80;98.20;;;;;;5015007;28;20558;-76
2021/03/16 01:59:03;;;;;;;1.57;1.30;;;5.80;98.20;;;;;;5028662;28;20522;-76
2021/03/16 02:01:30;;;;;;;1.60;1.40;;;5.80;98.20;;;;;;5005851;28;20506;-76
2021/03/16 02:03:56;;;;;;;1.60;1.40;;;5.80;98.20;;;;;;5030211;28;20487;-76
2021/03/16 02:06:35;;;;;;;1.60;1.30;;;5.80;98.20;;;;;;5015832;28;20479;-76
2021/03/16 02:09:11;;;;;;;1.60;1.43;;;5.80;98.20;;;;;;5024864;28;20458;-76
2021/03/16 02:11:44;;;;;;;1.60;1.50;;;5.80;98.20;;;;;;5013839;28;20485;-74
2021/03/16 02:14:14;;;;;;;1.60;1.30;;;5.80;98.20;;;;;;5026529;28;20484;-74
2021/03/16 02:16:49;;;;;;;1.60;1.30;;;5.70;98.20;;;;;;5012656;28;20475;-77
2021/03/16 02:19:41;;;;;;;1.60;1.30;;;5.70;98.20;;;;;;5023056;28;20474;-75
2021/03/16 02:22:08;;;;;;;1.60;1.33;;;5.70;98.20;;;;;;5013299;28;20683;-75
2021/03/16 02:25:02;;;;;;;1.60;1.30;;;5.70;98.20;;;;;;5021025;28;20495;-76
2021/03/16 02:27:39;;;;;;;1.60;1.50;;;5.70;98.20;;;;;;5001928;28;20672;-78
2021/03/16 02:30:09;;;;;;;1.53;1.20;;;5.70;98.20;;;;;;5025538;28;20469;-77
2021/03/16 02:32:39;;;;;;;1.60;1.37;;;5.70;98.20;;;;;;5020646;28;20479;-75
2021/03/16 02:35:07;;;;;;;1.60;1.40;;;5.60;98.20;;;;;;5029096;28;20466;-76
2021/03/16 02:37:36;;;;;;;1.60;1.27;;;5.60;98.20;;;;;;5015912;28;21192;-75
2021/03/16 02:40:03;;;;;;;1.60;1.30;;;5.60;98.20;;;;;;5021054;28;20455;-75
2021/03/16 02:42:33;;;;;;;1.60;1.40;;;5.60;98.20;;;;;;5021343;28;20510;-74
2021/03/16 02:45:00;;;;;;;1.60;1.40;;;5.60;98.20;;;;;;5023479;28;20534;-76
2021/03/16 02:47:27;;;;;;;1.60;1.30;;;5.60;98.20;;;;;;4996252;28;20483;-74
2021/03/16 02:49:54;;;;;;;1.60;1.27;;;5.60;98.20;;;;;;5019604;28;20544;-75
2021/03/16 02:52:22;;;;;;;1.60;1.30;;;5.50;98.20;;;;;;5019149;28;20576;-75
2021/03/16 02:54:50;;;;;;;1.60;1.30;;;5.50;98.20;;;;;;5024709;28;20460;-77
2021/03/16 02:57:17;;;;;;;1.60;1.30;;;5.50;98.20;;;;;;5000219;28;20544;-76
2021/03/16 02:59:45;;;;;;;1.60;1.40;;;5.50;98.20;;;;;;5018866;28;20861;-77
2021/03/16 03:02:12;;;;;;;1.60;1.40;;;5.50;98.20;;;;;;5019036;28;20479;-75
2021/03/16 03:04:41;;;;;;;1.60;1.40;;;5.40;98.20;;;;;;5025666;28;21000;-73
2021/03/16 03:07:09;;;;;;;1.60;1.40;;;5.50;98.20;;;;;;5008957;28;20541;-75
2021/03/16 03:09:36;;;;;;;1.60;1.20;;;5.50;98.20;;;;;;5016114;28;20463;-76
2021/03/16 03:12:04;;;;;;;1.60;1.30;;;5.50;98.20;;;;;;5016907;28;20483;-75
2021/03/16 03:14:32;;;;;;;1.60;1.30;;;5.50;98.20;;;;;;5027664;28;20498;-76
2021/03/16 03:16:58;;;;;;;1.60;1.30;;;5.50;98.20;;;;;;5014528;28;20873;-76
2021/03/16 03:19:25;;;;;;;1.60;1.30;;;5.50;98.20;;;;;;5019789;28;20978;-75
2021/03/16 03:22:01;;;;;;;1.60;1.50;;;5.50;98.20;;;;;;5008359;28;20538;-76
2021/03/16 03:24:32;;;;;;;1.60;1.30;;;5.50;98.20;;;;;;5024350;28;20486;-76
2021/03/16 03:27:04;;;;;;;1.60;1.40;;;5.50;98.20;;;;;;5015361;28;20487;-75
2021/03/16 03:29:32;;;;;;;1.60;1.40;;;5.50;98.20;;;;;;5023440;28;20574;-77
2021/03/16 03:32:00;;;;;;;1.60;1.40;;;5.50;98.20;;;;;;5014824;28;20937;-75
2021/03/16 03:34:27;;;;;;;2.80;2.20;;;5.50;98.20;;;;;;5025255;28;20491;-76
2021/03/16 03:36:57;;;;;;;1.60;1.30;;;5.50;98.20;;;;;;5018454;28;20487;-76
2021/03/16 03:39:26;;;;;;;1.60;1.30;;;5.50;98.20;;;;;;5022551;28;20893;-76
2021/03/16 03:41:53;;;;;;;1.57;1.30;;;5.60;98.20;;;;;;5014926;28;20475;-76
2021/03/16 03:44:21;;;;;;;1.60;1.40;;;5.60;98.20;;;;;;5021870;28;20487;-76
2021/03/16 03:46:48;;;;;;;1.60;1.50;;;5.60;98.20;;;;;;5008316;28;20491;-74
2021/03/16 03:49:16;;;;;;;1.60;1.40;;;5.60;98.20;;;;;;5015468;28;20954;-76
2021/03/16 03:51:44;;;;;;;1.60;1.30;;;5.60;98.20;;;;;;5009326;28;20477;-77
2021/03/16 03:54:12;;;;;;;1.60;1.50;;;5.60;98.20;;;;;;5015909;28;20534;-77
2021/03/16 03:56:39;;;;;;;1.60;1.37;;;5.60;98.20;;;;;;5011653;28;20483;-76
2021/03/16 03:59:06;;;;;;;1.60;1.40;;;5.70;98.20;;;;;;5018485;28;20452;-74
2021/03/16 04:01:33;;;;;;;1.60;1.23;;;5.60;98.20;;;;;;5012708;28;21267;-76
2021/03/16 04:04:01;;;;;;;1.60;1.30;;;5.70;98.20;;;;;;5023632;28;20483;-78
2021/03/16 04:06:28;;;;;;;1.57;1.30;;;5.70;98.20;;;;;;5004049;28;20999;-72
2021/03/16 04:08:55;;;;;;;1.57;1.23;;;5.70;98.20;;;;;;5009490;28;20476;-76
2021/03/16 04:11:24;;;;;;;1.57;1.30;;;5.70;98.20;;;;;;5018361;28;20703;-76
2021/03/16 04:13:52;;;;;;;1.60;1.30;;;5.70;98.20;;;;;;5021932;28;20494;-75
2021/03/16 04:16:19;;;;;;;1.60;1.30;;;5.70;98.20;;;;;;5010610;28;20537;-75
2021/03/16 04:18:46;;;;;;;1.60;1.30;;;5.70;98.20;;;;;;5023430;28;20491;-76
2021/03/16 04:21:14;;;;;;;1.60;1.30;;;5.70;98.20;;;;;;5010704;28;21187;-76
2021/03/16 04:23:42;;;;;;;1.60;1.40;;;5.70;98.20;;;;;;5021746;28;20484;-76
2021/03/16 04:26:08;;;;;;;1.60;1.30;;;5.60;98.20;;;;;;5008008;28;20566;-76
2021/03/16 04:28:35;;;;;;;1.50;1.20;;;5.70;98.20;;;;;;5020311;28;20483;-75
2021/03/16 04:31:02;;;;;;;1.60;1.30;;;5.70;98.20;;;;;;5007718;28;20537;-76
2021/03/16 04:33:28;;;;;;;1.60;1.30;;;5.60;98.20;;;;;;5017598;28;20510;-75
2021/03/16 04:35:54;;;;;;;1.60;1.20;;;5.70;98.20;;;;;;5007275;28;20467;-77
2021/03/16 04:38:21;;;;;;;1.60;1.30;;;5.60;98.20;;;;;;5028669;28;20961;-77
2021/03/16 04:40:47;;;;;;;1.60;1.40;;;5.60;98.20;;;;;;5019083;28;20858;-76
2021/03/16 04:43:13;;;;;;;1.60;1.30;;;5.60;98.20;;;;;;5021446;28;20490;-76
2021/03/16 04:45:40;;;;;;;1.53;1.30;;;5.60;98.20;;;;;;5025620;28;20483;-76
2021/03/16 04:48:07;;;;;;;1.60;1.30;;;5.60;98.20;;;;;;4994785;28;21020;-74
2021/03/16 04:50:34;;;;;;;1.60;1.30;;;5.60;98.20;;;;;;5021467;28;20474;-76
2021/03/16 04:53:00;;;;;;;1.53;1.23;;;5.60;98.20;;;;;;5005816;28;20832;-77
2021/03/16 04:55:26;;;;;;;1.60;1.30;;;5.60;98.20;;;;;;5016274;28;20456;-77
2021/03/16 04:57:53;;;;;;;1.60;1.40;;;5.60;98.20;;;;;;5009485;28;20557;-76
2021/03/16 05:00:20;;;;;;;1.60;1.30;;;5.60;98.20;;;;;;5022015;28;20464;-75
2021/03/16 05:02:48;;;;;;;1.60;1.30;;;5.70;98.20;;;;;;5014343;28;20479;-76
2021/03/16 05:05:15;;;;;;;1.60;1.30;;;5.70;98.20;;;;;;5023597;28;20491;-75
2021/03/16 05:07:41;;;;;;;1.60;1.47;;;5.70;98.20;;;;;;5011966;28;20490;-77
2021/03/16 05:10:09;;;;;;;1.57;1.30;;;5.70;98.20;;;;;;5024522;28;22178;-76
2021/03/16 05:12:35;;;;;;;1.57;1.27;;;5.70;98.20;;;;;;5013601;28;20483;-76
2021/03/16 05:15:02;;;;;;;1.60;1.30;;;5.70;98.20;;;;;;5015441;28;20751;-76
2021/03/16 05:17:28;;;;;;;1.60;1.30;;;5.70;98.20;;;;;;5011374;28;20492;-76
2021/03/16 05:19:55;;;;;;;1.60;1.30;;;5.70;98.20;;;;;;5027897;28;20460;-77
2021/03/16 05:22:21;;;;;;;1.60;1.30;;;5.70;98.20;;;;;;5016521;28;20487;-76
2021/03/16 05:24:48;;;;;;;1.60;1.30;;;5.70;98.20;;;;;;5018983;28;20525;-76
2021/03/16 05:27:14;;;;;;;1.60;1.30;;;5.70;98.20;;;;;;5014119;28;20475;-76
2021/03/16 05:29:40;;;;;;;1.60;1.30;;;5.60;98.20;;;;;;5029478;28;20455;-76
2021/03/16 05:32:07;;;;;;;1.60;1.20;;;5.60;98.20;;;;;;5018288;28;20487;-77
2021/03/16 05:34:34;;;;;;;1.57;1.33;;;5.60;98.20;;;;;;5017714;28;20476;-76
2021/03/16 05:37:01;;;;;;;1.57;1.30;;;5.60;98.20;;;;;;5016886;28;20545;-77
2021/03/16 05:39:27;;;;;;;1.60;1.40;;;5.60;98.20;;;;;;5024975;28;20510;-76
2021/03/16 05:41:54;;;;;;;1.60;1.50;;;5.70;98.20;;;;;;5016400;28;20490;-77
2021/03/16 05:44:22;;;;;;;1.60;1.40;;;5.70;98.20;;;;;;5021368;28;20482;-76
2021/03/16 05:46:49;;;;;;;1.60;1.30;;;5.70;98.20;;;;;;5013976;28;20938;-76
2021/03/16 05:49:17;;;;;;;1.60;1.30;;;5.70;98.20;;;;;;5026771;28;20514;-76
2021/03/16 05:51:44;;;;;;;1.60;1.30;;;5.70;98.20;;;;;;5014738;28;20484;-75
2021/03/16 05:54:12;;;;;;;1.60;1.20;;;5.70;98.20;;;;;;5020292;28;20487;-74
2021/03/16 05:56:40;;;;;;;1.60;1.40;;;5.70;98.20;;;;;;5013085;28;20479;-75
2021/03/16 05:59:07;;;;;;;1.60;1.43;;;5.70;98.20;;;;;;5022571;28;20455;-74
2021/03/16 06:01:34;;;;;;;1.57;1.30;;;5.70;98.20;;;;;;5006247;28;20483;-75
2021/03/16 06:04:01;;;;;;;1.60;1.40;;;5.70;98.20;;;;;;5020176;28;20478;-77
2021/03/16 06:06:27;;;;;;;1.60;1.30;;;5.70;98.20;;;;;;5015986;28;20491;-76
2021/03/16 06:08:54;;;;;;;1.60;1.30;;;5.70;98.20;;;;;;5019598;28;20464;-76
2021/03/16 06:11:21;;;;;;;1.60;1.30;;;5.70;98.20;;;;;;5007184;28;20856;-75
2021/03/16 06:13:52;;;;;;;1.60;1.33;;;5.70;98.20;;;;;;5021920;28;20483;-77
2021/03/16 06:16:19;;;;;;;1.60;1.40;;;5.60;98.20;;;;;;5007611;28;20475;-74
2021/03/16 06:18:47;;;;;;;1.60;1.37;;;5.70;98.20;;;;;;5020883;28;20510;-77
2021/03/16 06:21:18;;;;;;;1.60;1.30;;;5.60;98.20;;;;;;5014454;28;20861;-75
2021/03/16 06:23:52;;;;;;;1.60;1.40;;;5.70;98.20;;;;;;5021700;28;21030;-75
2021/03/16 06:26:19;;;;;;;1.60;1.30;;;5.70;98.20;;;;;;5005366;28;20487;-76
2021/03/16 06:28:47;;;;;;;1.60;1.30;;;5.70;98.20;;;;;;5021218;28;20994;-76
2021/03/16 06:31:21;;;;;;;1.53;1.20;;;5.70;98.20;;;;;;5009331;28;21064;-76
2021/03/16 06:33:48;;;;;;;1.60;1.30;;;5.70;98.20;;;;;;5017324;28;20484;-73
2021/03/16 06:36:14;;;;;;;1.60;1.40;;;5.80;98.20;;;;;;5007600;28;20996;-74
2021/03/16 06:38:41;;;;;;;1.60;1.30;;;5.80;98.20;;;;;;5025706;28;20459;-76
2021/03/16 06:41:10;;;;;;;1.60;1.43;;;5.80;98.20;;;;;;5002827;28;20481;-76
2021/03/16 06:43:36;;;;;;;1.60;1.30;;;5.90;98.20;;;;;;5016830;28;20565;-75
2021/03/16 06:46:04;;;;;;;1.57;1.20;;;5.90;98.20;;;;;;5011038;28;20666;-76
2021/03/16 06:48:35;;;;;;;1.60;1.30;;;6.00;98.20;;;;;;5011215;28;20466;-76
2021/03/16 06:51:12;;;;;;;1.57;1.30;;;6.00;98.20;;;;;;5014558;28;20470;-75
2021/03/16 06:53:41;;;;;;;1.60;1.40;;;6.10;98.20;;;;;;5022643;28;20483;-75
2021/03/16 06:56:08;;;;;;;1.57;1.20;;;6.10;98.20;;;;;;5015848;28;20487;-75
2021/03/16 06:58:36;;;;;;;1.60;1.30;;;6.20;98.20;;;;;;5022885;28;20488;-75
2021/03/16 07:01:08;;;;;;;1.60;1.30;;;6.20;98.20;;;;;;5016383;28;20464;-75
2021/03/16 07:03:37;;;;;;;1.60;1.30;;;6.20;98.20;;;;;;5025417;28;20874;-76
2021/03/16 07:06:11;;;;;;;1.60;1.30;;;6.30;98.20;;;;;;5016608;28;20969;-75
2021/03/16 07:08:40;;;;;;;1.60;1.30;;;6.30;98.20;;;;;;5019878;28;20510;-75
2021/03/16 07:11:09;;;;;;;1.60;1.30;;;6.30;98.20;;;;;;5008780;28;20492;-76
2021/03/16 07:13:36;;;;;;;1.60;1.40;;;6.30;98.20;;;;;;5022108;28;20487;-76
2021/03/16 07:16:11;;;;;;;1.50;1.20;;;6.40;98.20;;;;;;5011836;28;20463;-75
2021/03/16 07:18:40;;;;;;;1.60;1.30;;;6.40;98.20;;;;;;5020130;28;20495;-74
2021/03/16 07:21:08;;;;;;;1.60;1.30;;;6.40;98.20;;;;;;5012548;28;20790;-75
2021/03/16 07:23:40;;;;;;;1.60;1.30;;;6.50;98.20;;;;;;5021019;28;20488;-76
2021/03/16 07:26:07;;;;;;;1.60;1.37;;;6.60;98.20;;;;;;5012015;28;20787;-76
2021/03/16 07:28:34;;;;;;;1.60;1.30;;;6.70;98.20;;;;;;5015359;28;20789;-75
2021/03/16 07:31:00;;;;;;;1.60;1.30;;;6.70;98.20;;;;;;5008472;28;20463;-75
2021/03/16 07:33:28;;;;;;;1.60;1.30;;;6.80;98.20;;;;;;5022531;28;20487;-74
2021/03/16 07:35:55;;;;;;;1.60;1.30;;;6.80;98.20;;;;;;5008378;28;20807;-75
2021/03/16 07:38:22;;;;;;;1.57;1.20;;;6.90;98.20;;;;;;5024305;28;20478;-76
2021/03/16 07:40:50;;;;;;;1.60;1.30;;;6.90;98.20;;;;;;5011996;28;20499;-75
2021/03/16 07:43:19;;;;;;;1.60;1.30;;;7.00;98.20;;;;;;5031404;28;20488;-74
2021/03/16 07:45:46;;;;;;;1.60;1.20;;;7.10;98.20;;;;;;5033043;28;20479;-75
2021/03/16 07:48:17;;;;;;;1.60;1.20;;;7.20;98.20;;;;;;4994777;28;20644;-76
2021/03/16 07:50:45;;;;;;;1.60;1.30;;;7.30;98.20;;;;;;5022774;28;20463;-75
2021/03/16 07:53:22;;;;;;;1.60;1.30;;;7.30;98.20;;;;;;4989076;28;21005;-73
2021/03/16 07:55:49;;;;;;;1.60;1.20;;;7.40;98.20;;;;;;5011029;28;20494;-75
2021/03/16 07:58:23;;;;;;;1.60;1.30;;;7.50;98.20;;;;;;5022440;28;20505;-76
2021/03/16 08:00:50;;;;;;;1.60;1.20;;;7.70;98.20;;;;;;5020264;28;20455;-76
2021/03/16 08:03:23;;;;;;;1.60;1.20;;;7.80;98.20;;;;;;5020160;28;20491;-75
2021/03/16 08:05:52;;;;;;;1.60;1.20;;;7.90;98.20;;;;;;5016368;28;20494;-75
2021/03/16 08:08:20;;;;;;;1.60;1.30;;;8.00;98.20;;;;;;5006251;28;20542;-75
2021/03/16 08:10:47;;;;;;;1.60;1.30;;;8.00;98.20;;;;;;5020022;28;20665;-75
2021/03/16 08:13:15;;;;;;;1.60;1.20;;;8.10;98.20;;;;;;5018493;28;20491;-75
2021/03/16 08:15:43;;;;;;;1.60;1.30;;;8.20;98.20;;;;;;5021939;28;21226;-77
2021/03/16 08:18:10;;;;;;;1.60;1.20;;;8.30;98.20;;;;;;5019166;28;20483;-75
2021/03/16 08:20:36;;;;;;;1.60;1.40;;;8.30;98.20;;;;;;5025006;28;20636;-75
2021/03/16 08:23:05;;;;;;;1.53;1.10;;;8.50;98.20;;;;;;5007120;28;20492;-75
2021/03/16 08:25:32;;;;;;;1.57;1.10;;;8.60;98.20;;;;;;5016208;28;20503;-74
2021/03/16 08:28:06;;;;;;;1.60;1.10;;;8.80;98.20;;;;;;5017126;28;20493;-75
2021/03/16 08:30:33;;;;;;;1.60;1.20;;;8.90;98.20;;;;;;5015735;28;20468;-78
2021/03/16 08:33:07;;;;;;;1.60;1.13;;;9.00;98.20;;;;;;5014435;28;20713;-76
2021/03/16 08:35:34;;;;;;;1.60;1.10;;;9.20;98.20;;;;;;5019102;28;20946;-75
2021/03/16 08:38:01;;;;;;;1.60;1.30;;;9.50;98.20;;;;;;5013310;28;20491;-75
2021/03/16 08:40:40;;;;;;;1.60;1.10;;;9.60;98.20;;;;;;5020836;28;20819;-75
2021/03/16 08:43:10;;;;;;;1.60;1.10;;;9.80;98.20;;;;;;5005180;28;20517;-76
2021/03/16 08:45:37;;;;;;;1.60;1.20;;;10.00;98.20;;;;;;5019923;28;20479;-75
2021/03/16 08:48:07;;;;;;;1.60;1.20;;;10.00;95.80;;;;;;4996599;28;20499;-75
2021/03/16 08:50:40;;;;;;;1.53;1.10;;;9.80;95.50;;;;;;5022378;28;20463;-76
2021/03/16 08:53:06;;;;;;;1.60;1.20;;;9.70;96.30;;;;;;5002522;28;20582;-75
2021/03/16 08:55:33;;;;;;;1.60;1.20;;;9.60;96.90;;;;;;5020546;28;20468;-75
2021/03/16 08:58:10;;;;;;;1.60;1.10;;;9.60;96.40;;;;;;5010152;28;20514;-76
2021/03/16 09:00:42;;;;;;;1.60;1.20;;;9.60;96.40;;;;;;5019380;28;20466;-75
2021/03/16 09:03:09;;;;;;;3.83;3.53;;;9.60;96.30;;;;;;5010062;28;20999;-76
2021/03/16 09:05:35;;;;;;;1.60;1.10;;;9.50;95.60;;;;;;5011970;28;20491;-76
2021/03/16 09:08:01;;;;;;;1.60;1.20;;;9.40;96.60;;;;;;5013718;28;20486;-75
2021/03/16 09:10:35;;;;;;;1.60;1.10;;;9.40;97.00;;;;;;5018194;28;20467;-77
2021/03/16 09:13:06;;;;;;;1.60;1.30;;;9.40;96.80;;;;;;4995029;28;20480;-75
2021/03/16 09:15:34;;;;;;;1.50;1.10;;;9.40;97.10;;;;;;5024277;28;20970;-76
2021/03/16 09:18:06;;;;;;;1.53;1.03;;;9.30;96.70;;;;;;5006153;28;20771;-76
2021/03/16 09:20:38;;;;;;;1.60;1.20;;;9.20;97.40;;;;;;5014902;28;20471;-75
2021/03/16 09:23:22;;;;;;;1.57;1.07;;;9.20;97.50;;;;;;5009123;28;20986;-76
2021/03/16 09:25:48;;;;;;;1.53;1.10;;;9.20;97.20;;;;;;5008702;28;20484;-75
2021/03/16 09:28:23;;;;;;;1.50;1.10;;;9.20;97.10;;;;;;5021157;28;20529;-75
2021/03/16 09:31:00;;;;;;;1.57;1.10;;;9.20;97.40;;;;;;5007395;28;20474;-76
2021/03/16 09:33:54;;;;;;;;;;;;;;;;;;;;;
2021/03/16 09:36:28;;;;;;;1.53;1.10;;;9.30;95.80;;;;;;5006484;28;20891;-77
2021/03/16 09:38:56;;;;;;;1.60;1.20;;;9.40;96.50;;;;;;5016545;28;20471;-75
2021/03/16 09:41:22;;;;;;;1.50;1.10;;;9.40;94.30;;;;;;5012426;28;20593;-76
2021/03/16 09:43:52;;;;;;;1.53;1.10;;;9.50;94.40;;;;;;5018074;28;20487;-75
2021/03/16 09:46:20;;;;;;;1.57;1.10;;;9.50;94.80;;;;;;5008581;28;21015;-75
2021/03/16 09:48:50;;;;;;;1.50;1.00;;;9.50;94.90;;;;;;5017309;28;20464;-74
2021/03/16 09:51:31;;;;;;;1.60;1.20;;;9.60;94.80;;;;;;5000121;28;20720;-75
2021/03/16 09:53:59;;;;;;;1.50;1.10;;;9.70;94.90;;;;;;5014985;28;20487;-75
2021/03/16 09:59:13;;;;;;;1.57;1.10;;;9.80;94.60;;;;;;4996835;28;20460;-75
2021/03/16 10:01:42;;;;;;;1.53;1.10;;;9.80;94.60;;;;;;5004909;28;20538;-76
2021/03/16 10:04:12;;;;;;;1.57;1.10;;;9.80;94.30;;;;;;5017217;28;20920;-75
2021/03/16 10:06:41;;;;;;;1.53;1.10;;;9.80;94.10;;;;;;5007436;28;20874;-76
2021/03/16 10:09:15;;;;;;;1.60;1.10;;;9.80;94.00;;;;;;5022288;28;20470;-76
2021/03/16 10:11:41;;;;;;;1.60;1.20;;;9.80;94.30;;;;;;5011747;28;20553;-76
2021/03/16 10:14:07;;;;;;;1.60;1.13;;;9.80;95.00;;;;;;5027379;28;20487;-77
2021/03/16 10:16:36;;;;;;;1.57;1.10;;;9.80;94.30;;;;;;5014944;28;20486;-76
2021/03/16 10:19:03;;;;;;;1.53;1.10;;;9.70;94.70;;;;;;5018435;28;20468;-78
2021/03/16 10:21:30;;;;;;;1.60;1.30;;;9.70;95.20;;;;;;5016510;28;20956;-78
2021/03/16 10:23:58;;;;;;;1.60;1.00;;;9.60;95.20;;;;;;5022023;28;20483;-76
2021/03/16 10:26:26;;;;;;;1.60;1.10;;;9.70;95.40;;;;;;5017606;28;20557;-76
2021/03/16 10:28:52;;;;;;;1.60;1.20;;;9.70;94.90;;;;;;5020000;28;21104;-77
2021/03/16 10:31:20;;;;;;;1.60;1.13;;;9.80;95.30;;;;;;5014493;28;20486;-77
2021/03/16 10:33:51;;;;;;;1.60;1.10;;;9.90;94.80;;;;;;5020782;28;20487;-77
2021/03/16 10:36:17;;;;;;;1.60;1.20;;;9.90;93.90;;;;;;5009572;28;20526;-76
2021/03/16 10:38:48;;;;;;;1.53;1.10;;;9.90;93.60;;;;;;5028906;28;20844;-77
2021/03/16 10:41:14;;;;;;;1.57;1.10;;;9.90;93.70;;;;;;5019484;28;20491;-78
2021/03/16 10:43:41;;;;;;;1.57;1.20;;;10.00;92.70;;;;;;5018370;28;20526;-76
2021/03/16 10:46:07;;;;;;;1.57;1.10;;;10.10;92.70;;;;;;5010999;28;20487;-79
2021/03/16 10:48:33;;;;;;;1.60;1.10;;;10.10;92.20;;;;;;5026798;28;20482;-75
2021/03/16 10:51:01;;;;;;;1.60;1.17;;;10.00;92.70;;;;;;5013304;28;20501;-75
2021/03/16 10:53:27;;;;;;;1.60;1.20;;;9.80;93.40;;;;;;5018621;28;20487;-78
2021/03/16 10:55:53;;;;;;;1.60;1.10;;;9.50;93.90;;;;;;5008471;28;20513;-75
2021/03/16 10:58:22;;;;;;;1.57;1.10;;;9.40;95.30;;;;;;5007968;28;20471;-77
2021/03/16 11:00:48;;;;;;;1.53;1.10;;;9.20;95.10;;;;;;5010805;28;20492;-77
2021/03/16 11:03:15;;;;;;;1.57;1.10;;;9.10;95.70;;;;;;5015145;28;20491;-75
2021/03/16 11:05:41;;;;;;;1.57;1.10;;;9.20;96.10;;;;;;5020265;28;20490;-76
2021/03/16 11:08:10;;;;;;;1.57;1.10;;;9.20;96.60;;;;;;5010863;28;20495;-76
2021/03/16 11:10:36;;;;;;;1.53;1.10;;;9.30;96.60;;;;;;5018753;28;20459;-76
2021/03/16 11:13:03;;;;;;;1.53;1.10;;;9.40;96.50;;;;;;5015854;28;21124;-76
2021/03/16 11:15:29;;;;;;;1.60;1.20;;;9.40;96.50;;;;;;5028377;28;20946;-77
2021/03/16 11:17:55;;;;;;;1.53;1.10;;;9.40;96.20;;;;;;5010509;28;21065;-77
2021/03/16 11:20:22;;;;;;;1.57;1.07;;;9.50;96.50;;;;;;5020393;28;21137;-78
2021/03/16 11:22:48;;;;;;;1.60;1.20;;;9.70;96.80;;;;;;5009576;28;21046;-75
2021/03/16 11:25:16;;;;;;;1.53;1.10;;;9.90;96.00;;;;;;5019175;28;20476;-75
2021/03/16 11:27:42;;;;;;;1.57;1.10;;;10.10;95.60;;;;;;5017640;28;20483;-76
2021/03/16 11:30:09;;;;;;;1.57;1.10;;;10.30;94.10;;;;;;5017883;28;20510;-76
2021/03/16 11:32:36;;;;;;;1.60;1.20;;;10.40;94.20;;;;;;5018923;28;20997;-77
2021/03/16 11:35:03;;;;;;;1.57;1.10;;;10.50;92.80;;;;;;5021263;28;20464;-77
2021/03/16 11:37:30;;;;;;;1.53;1.00;;;10.70;93.50;;;;;;5004029;28;20913;-76
2021/03/16 11:39:56;;;;;;;1.60;1.10;;;10.80;92.90;;;;;;5023038;28;20467;-77
2021/03/16 11:42:24;;;;;;;1.53;1.00;;;10.90;92.90;;;;;;5008012;28;20715;-79
2021/03/16 11:44:50;;;;;;;1.57;1.07;;;10.90;92.20;;;;;;5021815;28;20459;-77
2021/03/16 11:47:17;;;;;;;1.60;1.00;;;10.80;92.80;;;;;;5015760;28;20533;-75
2021/03/16 11:49:43;;;;;;;1.57;1.00;;;10.70;91.90;;;;;;5015736;28;20482;-78
2021/03/16 11:52:10;;;;;;;1.57;1.00;;;10.60;92.10;;;;;;5005926;28;20483;-74
2021/03/16 11:54:36;;;;;;;1.57;1.00;;;10.50;92.60;;;;;;5016172;28;20491;-75
2021/03/16 11:57:02;;;;;;;1.60;1.10;;;10.30;92.20;;;;;;5013429;28;20561;-76
2021/03/16 11:59:30;;;;;;;1.57;1.10;;;10.20;91.80;;;;;;5018892;28;20497;-76
2021/03/16 12:01:56;;;;;;;1.60;1.10;;;10.10;92.10;;;;;;5007015;28;20483;-77
2021/03/16 12:04:22;;;;;;;1.60;1.10;;;10.00;92.60;;;;;;5017459;28;20525;-76
2021/03/16 12:06:49;;;;;;;1.50;1.07;;;9.90;93.80;;;;;;5008944;28;20502;-76
2021/03/16 12:09:15;;;;;;;1.53;1.03;;;9.90;94.00;;;;;;5023165;28;20471;-76
2021/03/16 12:11:41;;;;;;;1.57;1.07;;;9.90;94.40;;;;;;5005665;28;20487;-76
2021/03/16 12:14:07;;;;;;;1.57;1.10;;;10.00;94.10;;;;;;5017221;28;20499;-74
2021/03/16 12:16:34;;;;;;;1.50;1.00;;;10.00;94.40;;;;;;5009238;28;20483;-74
2021/03/16 12:19:01;;;;;;;1.53;1.10;;;9.90;95.00;;;;;;5016579;28;20500;-74
2021/03/16 12:21:27;;;;;;;1.60;1.10;;;10.00;94.80;;;;;;5008947;28;20484;-76
2021/03/16 12:23:53;;;;;;;1.57;1.10;;;9.90;94.90;;;;;;5020288;28;20487;-76
2021/03/16 12:26:19;;;;;;;1.53;1.07;;;9.90;95.00;;;;;;5010350;28;20509;-75
2021/03/16 12:28:47;;;;;;;1.53;1.10;;;9.90;95.30;;;;;;5018648;28;20459;-75
2021/03/16 12:31:13;;;;;;;1.50;1.00;;;9.90;95.00;;;;;;5005009;28;21071;-75
2021/03/16 12:33:40;;;;;;;1.50;1.10;;;9.90;95.60;;;;;;5025324;28;21026;-76
2021/03/16 12:36:09;;;;;;;1.53;1.00;;;9.80;95.80;;;;;;5011168;28;20529;-76
2021/03/16 12:38:35;;;;;;;1.53;1.10;;;9.70;96.10;;;;;;5021966;28;20474;-79
2021/03/16 12:41:01;;;;;;;1.57;1.10;;;9.50;98.10;;;;;;5007573;28;20483;-77
2021/03/16 12:43:28;;;;;;;1.60;1.20;;;9.30;98.20;;;;;;5021533;28;20494;-77
2021/03/16 12:45:54;;;;;;;1.53;1.00;;;9.30;98.20;;;;;;5014173;28;20475;-77
2021/03/16 12:48:20;;;;;;;1.50;1.10;;;9.40;98.20;;;;;;5003806;28;20463;-76
2021/03/16 12:50:48;;;;;;;1.53;1.10;;;9.50;98.20;;;;;;5015718;28;20868;-75
2021/03/16 12:53:14;;;;;;;1.53;1.10;;;9.60;98.20;;;;;;5021239;28;20494;-76
2021/03/16 12:55:42;;;;;;;1.57;1.10;;;9.80;98.20;;;;;;5023404;28;20458;-74
2021/03/16 12:58:08;;;;;;;1.60;1.10;;;10.00;98.20;;;;;;5010874;28;20908;-76
2021/03/16 13:00:34;;;;;;;1.57;1.00;;;10.30;98.20;;;;;;5017308;28;20467;-76
2021/03/16 13:03:00;;;;;;;1.60;1.10;;;10.60;98.20;;;;;;5011263;28;20495;-76
2021/03/16 13:05:27;;;;;;;1.60;1.10;;;10.90;98.20;;;;;;5016628;28;20467;-77